sensor_id;sensor_type;location;lat;lon;timestamp;temperature;humidity
57088;DHT22;42965;52.846;6.614;2023-06-22T00:01:12;17.90;99.90
57088;DHT22;42965;52.846;6.614;2023-06-22T00:03:38;18.00;99.90
57088;DHT22;42965;52.846;6.614;2023-06-22T00:06:05;17.90;99.90
57088;DHT22;42965;52.846;6.614;2023-06-22T00:08:31;17.90;99.90
57088;DHT22;42965;52.846;6.614;2023-06-22T00:10:57;17.90;99.90
57088;DHT22;42965;52.846;6.614;2023-06-22T00:13:23;17.80;99.90
57088;DHT22;42965;52.846;6.614;2023-06-22T00:15:50;17.80;99.90
57088;DHT22;42965;52.846;6.614;2023-06-22T00:18:17;17.80;99.90
57088;DHT22;42965;52.846;6.614;2023-06-22T00:20:43;17.80;99.90
57088;DHT22;42965;52.846;6.614;2023-06-22T00:23:12;17.80;99.90
57088;DHT22;42965;52.846;6.614;2023-06-22T00:25:43;17.80;99.90
57088;DHT22;42965;52.846;6.614;2023-06-22T00:28:09;17.70;99.90
57088;DHT22;42965;52.846;6.614;2023-06-22T00:30:35;17.70;99.90
57088;DHT22;42965;52.846;6.614;2023-06-22T00:33:02;17.70;99.90
57088;DHT22;42965;52.846;6.614;2023-06-22T00:35:28;17.70;99.90
57088;DHT22;42965;52.846;6.614;2023-06-22T00:37:59;17.70;99.90
57088;DHT22;42965;52.846;6.614;2023-06-22T00:40:31;17.60;99.90
57088;DHT22;42965;52.846;6.614;2023-06-22T00:42:58;17.60;99.90
57088;DHT22;42965;52.846;6.614;2023-06-22T00:45:26;17.60;99.90
57088;DHT22;42965;52.846;6.614;2023-06-22T00:47:53;17.60;99.90
57088;DHT22;42965;52.846;6.614;2023-06-22T00:50:24;17.60;99.90
57088;DHT22;42965;52.846;6.614;2023-06-22T00:52:52;17.60;99.90
57088;DHT22;42965;52.846;6.614;2023-06-22T00:55:20;17.60;99.90
57088;DHT22;42965;52.846;6.614;2023-06-22T00:57:48;17.60;99.90
57088;DHT22;42965;52.846;6.614;2023-06-22T01:00:15;17.60;99.90
57088;DHT22;42965;52.846;6.614;2023-06-22T01:02:44;17.50;99.90
57088;DHT22;42965;52.846;6.614;2023-06-22T01:05:13;17.50;99.90
57088;DHT22;42965;52.846;6.614;2023-06-22T01:07:51;17.50;99.90
57088;DHT22;42965;52.846;6.614;2023-06-22T01:16:07;17.40;99.90
57088;DHT22;42965;52.846;6.614;2023-06-22T01:18:41;17.40;99.90
57088;DHT22;42965;52.846;6.614;2023-06-22T01:21:17;17.40;99.90
57088;DHT22;42965;52.846;6.614;2023-06-22T01:26:39;17.40;99.90
57088;DHT22;42965;52.846;6.614;2023-06-22T01:29:10;17.40;99.90
57088;DHT22;42965;52.846;6.614;2023-06-22T01:31:39;17.40;99.90
57088;DHT22;42965;52.846;6.614;2023-06-22T01:34:06;17.40;99.90
57088;DHT22;42965;52.846;6.614;2023-06-22T01:36:35;17.40;99.90
57088;DHT22;42965;52.846;6.614;2023-06-22T01:39:02;17.40;99.90
57088;DHT22;42965;52.846;6.614;2023-06-22T01:41:35;17.30;99.90
57088;DHT22;42965;52.846;6.614;2023-06-22T01:44:05;17.30;99.90
57088;DHT22;42965;52.846;6.614;2023-06-22T01:46:37;17.30;99.90
57088;DHT22;42965;52.846;6.614;2023-06-22T01:49:04;17.30;99.90
57088;DHT22;42965;52.846;6.614;2023-06-22T01:51:31;17.30;99.90
57088;DHT22;42965;52.846;6.614;2023-06-22T01:54:00;17.30;99.90
57088;DHT22;42965;52.846;6.614;2023-06-22T01:56:26;17.20;99.90
57088;DHT22;42965;52.846;6.614;2023-06-22T02:01:38;17.10;99.90
57088;DHT22;42965;52.846;6.614;2023-06-22T02:04:13;17.10;99.90
57088;DHT22;42965;52.846;6.614;2023-06-22T02:06:44;17.10;99.90
57088;DHT22;42965;52.846;6.614;2023-06-22T02:09:16;17.10;99.90
57088;DHT22;42965;52.846;6.614;2023-06-22T02:11:44;17.00;99.90
57088;DHT22;42965;52.846;6.614;2023-06-22T02:14:13;17.00;99.90
57088;DHT22;42965;52.846;6.614;2023-06-22T02:16:40;16.90;99.90
57088;DHT22;42965;52.846;6.614;2023-06-22T02:19:09;16.90;99.90
57088;DHT22;42965;52.846;6.614;2023-06-22T02:21:35;16.90;99.90
57088;DHT22;42965;52.846;6.614;2023-06-22T02:24:01;16.90;99.90
57088;DHT22;42965;52.846;6.614;2023-06-22T02:26:30;16.80;99.90
57088;DHT22;42965;52.846;6.614;2023-06-22T02:28:56;16.80;99.90
57088;DHT22;42965;52.846;6.614;2023-06-22T02:31:24;16.80;99.90
57088;DHT22;42965;52.846;6.614;2023-06-22T02:33:58;16.70;99.90
57088;DHT22;42965;52.846;6.614;2023-06-22T02:36:24;16.70;99.90
57088;DHT22;42965;52.846;6.614;2023-06-22T02:38:53;16.70;99.90
57088;DHT22;42965;52.846;6.614;2023-06-22T02:41:20;16.70;99.90
57088;DHT22;42965;52.846;6.614;2023-06-22T02:43:46;16.70;99.90
57088;DHT22;42965;52.846;6.614;2023-06-22T02:46:13;16.60;99.90
57088;DHT22;42965;52.846;6.614;2023-06-22T02:48:42;16.60;99.90
57088;DHT22;42965;52.846;6.614;2023-06-22T02:51:08;16.60;99.90
57088;DHT22;42965;52.846;6.614;2023-06-22T02:53:36;16.50;99.90
57088;DHT22;42965;52.846;6.614;2023-06-22T02:56:03;16.50;99.90
57088;DHT22;42965;52.846;6.614;2023-06-22T02:58:32;16.50;99.90
57088;DHT22;42965;52.846;6.614;2023-06-22T03:01:06;16.50;99.90
57088;DHT22;42965;52.846;6.614;2023-06-22T03:03:34;16.50;99.90
57088;DHT22;42965;52.846;6.614;2023-06-22T03:06:00;16.50;99.90
57088;DHT22;42965;52.846;6.614;2023-06-22T03:08:28;16.50;99.90
57088;DHT22;42965;52.846;6.614;2023-06-22T03:10:56;16.50;99.90
57088;DHT22;42965;52.846;6.614;2023-06-22T03:13:22;16.50;99.90
57088;DHT22;42965;52.846;6.614;2023-06-22T03:15:48;16.50;99.90
57088;DHT22;42965;52.846;6.614;2023-06-22T03:18:14;16.50;99.90
57088;DHT22;42965;52.846;6.614;2023-06-22T03:20:44;16.40;99.90
57088;DHT22;42965;52.846;6.614;2023-06-22T03:23:11;16.40;99.90
57088;DHT22;42965;52.846;6.614;2023-06-22T03:25:38;16.40;99.90
57088;DHT22;42965;52.846;6.614;2023-06-22T03:28:05;16.40;99.90
57088;DHT22;42965;52.846;6.614;2023-06-22T03:30:31;16.30;99.90
57088;DHT22;42965;52.846;6.614;2023-06-22T03:33:00;16.20;99.90
57088;DHT22;42965;52.846;6.614;2023-06-22T03:35:27;16.20;99.90
57088;DHT22;42965;52.846;6.614;2023-06-22T03:37:53;16.20;99.90
57088;DHT22;42965;52.846;6.614;2023-06-22T03:40:20;16.20;99.90
57088;DHT22;42965;52.846;6.614;2023-06-22T03:42:46;16.20;99.90
57088;DHT22;42965;52.846;6.614;2023-06-22T03:45:13;16.20;99.90
57088;DHT22;42965;52.846;6.614;2023-06-22T03:47:39;16.20;99.90
57088;DHT22;42965;52.846;6.614;2023-06-22T03:50:05;16.20;99.90
57088;DHT22;42965;52.846;6.614;2023-06-22T03:52:33;16.20;99.90
57088;DHT22;42965;52.846;6.614;2023-06-22T03:54:59;16.20;99.90
57088;DHT22;42965;52.846;6.614;2023-06-22T03:57:25;16.20;99.90
57088;DHT22;42965;52.846;6.614;2023-06-22T03:59:54;16.30;99.90
57088;DHT22;42965;52.846;6.614;2023-06-22T04:02:20;16.20;99.90
57088;DHT22;42965;52.846;6.614;2023-06-22T04:04:46;16.30;99.90
57088;DHT22;42965;52.846;6.614;2023-06-22T04:07:12;16.30;99.90
57088;DHT22;42965;52.846;6.614;2023-06-22T04:09:38;16.40;99.90
57088;DHT22;42965;52.846;6.614;2023-06-22T04:12:05;16.40;99.90
57088;DHT22;42965;52.846;6.614;2023-06-22T04:14:32;16.40;99.90
57088;DHT22;42965;52.846;6.614;2023-06-22T04:16:58;16.40;99.90
57088;DHT22;42965;52.846;6.614;2023-06-22T04:19:24;16.40;99.90
57088;DHT22;42965;52.846;6.614;2023-06-22T04:21:51;16.50;99.90
57088;DHT22;42965;52.846;6.614;2023-06-22T04:24:18;16.50;99.90
57088;DHT22;42965;52.846;6.614;2023-06-22T04:26:44;16.50;99.90
57088;DHT22;42965;52.846;6.614;2023-06-22T04:29:12;16.50;99.90
57088;DHT22;42965;52.846;6.614;2023-06-22T04:31:39;16.50;99.90
57088;DHT22;42965;52.846;6.614;2023-06-22T04:34:07;16.50;99.90
57088;DHT22;42965;52.846;6.614;2023-06-22T04:36:38;16.60;99.90
57088;DHT22;42965;52.846;6.614;2023-06-22T04:39:06;16.70;99.90
57088;DHT22;42965;52.846;6.614;2023-06-22T04:41:33;16.70;99.90
57088;DHT22;42965;52.846;6.614;2023-06-22T04:44:18;16.70;99.90
57088;DHT22;42965;52.846;6.614;2023-06-22T04:46:56;16.70;99.90
57088;DHT22;42965;52.846;6.614;2023-06-22T04:49:35;16.80;99.90
57088;DHT22;42965;52.846;6.614;2023-06-22T04:52:10;16.90;99.90
57088;DHT22;42965;52.846;6.614;2023-06-22T04:54:39;16.90;99.90
57088;DHT22;42965;52.846;6.614;2023-06-22T04:57:07;17.00;99.90
57088;DHT22;42965;52.846;6.614;2023-06-22T04:59:37;17.10;99.90
57088;DHT22;42965;52.846;6.614;2023-06-22T05:02:05;17.20;99.90
57088;DHT22;42965;52.846;6.614;2023-06-22T05:04:32;17.30;99.90
57088;DHT22;42965;52.846;6.614;2023-06-22T05:06:59;17.40;99.90
57088;DHT22;42965;52.846;6.614;2023-06-22T05:09:29;17.50;99.90
57088;DHT22;42965;52.846;6.614;2023-06-22T05:11:55;17.70;99.90
57088;DHT22;42965;52.846;6.614;2023-06-22T05:14:25;18.00;99.90
57088;DHT22;42965;52.846;6.614;2023-06-22T05:16:51;18.20;99.90
57088;DHT22;42965;52.846;6.614;2023-06-22T05:19:18;18.40;99.90
57088;DHT22;42965;52.846;6.614;2023-06-22T05:21:44;18.60;99.90
57088;DHT22;42965;52.846;6.614;2023-06-22T05:24:12;18.90;99.90
57088;DHT22;42965;52.846;6.614;2023-06-22T05:26:39;19.00;99.90
57088;DHT22;42965;52.846;6.614;2023-06-22T05:29:05;19.20;99.90
57088;DHT22;42965;52.846;6.614;2023-06-22T05:31:32;19.30;99.90
57088;DHT22;42965;52.846;6.614;2023-06-22T05:33:58;19.50;99.90
57088;DHT22;42965;52.846;6.614;2023-06-22T05:36:25;19.60;99.90
57088;DHT22;42965;52.846;6.614;2023-06-22T05:38:52;19.80;99.90
57088;DHT22;42965;52.846;6.614;2023-06-22T05:41:20;19.90;99.90
57088;DHT22;42965;52.846;6.614;2023-06-22T05:43:46;20.20;99.90
57088;DHT22;42965;52.846;6.614;2023-06-22T05:46:13;20.50;99.90
57088;DHT22;42965;52.846;6.614;2023-06-22T05:48:39;20.60;99.90
57088;DHT22;42965;52.846;6.614;2023-06-22T05:51:05;20.60;99.90
57088;DHT22;42965;52.846;6.614;2023-06-22T05:53:32;20.80;99.90
57088;DHT22;42965;52.846;6.614;2023-06-22T05:55:58;20.90;99.90
57088;DHT22;42965;52.846;6.614;2023-06-22T05:58:24;20.90;99.90
57088;DHT22;42965;52.846;6.614;2023-06-22T06:00:50;21.00;99.90
57088;DHT22;42965;52.846;6.614;2023-06-22T06:03:17;21.00;99.90
57088;DHT22;42965;52.846;6.614;2023-06-22T06:05:43;21.20;99.90
57088;DHT22;42965;52.846;6.614;2023-06-22T06:08:10;21.00;99.90
57088;DHT22;42965;52.846;6.614;2023-06-22T06:10:38;21.10;99.90
57088;DHT22;42965;52.846;6.614;2023-06-22T06:13:04;21.30;99.90
57088;DHT22;42965;52.846;6.614;2023-06-22T06:15:32;21.40;99.90
57088;DHT22;42965;52.846;6.614;2023-06-22T06:17:58;21.40;99.90
57088;DHT22;42965;52.846;6.614;2023-06-22T06:20:26;21.50;99.90
57088;DHT22;42965;52.846;6.614;2023-06-22T06:22:54;21.60;99.90
57088;DHT22;42965;52.846;6.614;2023-06-22T06:25:21;21.70;99.90
57088;DHT22;42965;52.846;6.614;2023-06-22T06:27:50;21.90;99.90
57088;DHT22;42965;52.846;6.614;2023-06-22T06:30:18;22.10;99.90
57088;DHT22;42965;52.846;6.614;2023-06-22T06:32:50;22.30;99.90
57088;DHT22;42965;52.846;6.614;2023-06-22T06:35:16;22.20;99.90
57088;DHT22;42965;52.846;6.614;2023-06-22T06:37:45;22.10;99.90
57088;DHT22;42965;52.846;6.614;2023-06-22T06:40:13;22.20;99.90
57088;DHT22;42965;52.846;6.614;2023-06-22T06:42:42;22.40;99.90
57088;DHT22;42965;52.846;6.614;2023-06-22T06:45:17;22.30;99.90
57088;DHT22;42965;52.846;6.614;2023-06-22T06:47:44;22.70;99.90
57088;DHT22;42965;52.846;6.614;2023-06-22T06:50:12;22.90;99.90
57088;DHT22;42965;52.846;6.614;2023-06-22T06:52:38;23.00;99.90
57088;DHT22;42965;52.846;6.614;2023-06-22T06:55:08;23.00;99.90
57088;DHT22;42965;52.846;6.614;2023-06-22T06:57:42;23.10;99.90
57088;DHT22;42965;52.846;6.614;2023-06-22T07:00:12;23.10;99.90
57088;DHT22;42965;52.846;6.614;2023-06-22T07:02:40;23.30;99.90
57088;DHT22;42965;52.846;6.614;2023-06-22T07:05:08;23.50;99.90
57088;DHT22;42965;52.846;6.614;2023-06-22T07:07:35;23.70;99.90
57088;DHT22;42965;52.846;6.614;2023-06-22T07:10:02;23.80;99.90
57088;DHT22;42965;52.846;6.614;2023-06-22T07:12:29;23.90;99.90
57088;DHT22;42965;52.846;6.614;2023-06-22T07:15:04;23.60;99.90
57088;DHT22;42965;52.846;6.614;2023-06-22T07:17:31;23.80;99.90
57088;DHT22;42965;52.846;6.614;2023-06-22T07:19:57;23.70;99.90
57088;DHT22;42965;52.846;6.614;2023-06-22T07:22:23;23.60;99.90
57088;DHT22;42965;52.846;6.614;2023-06-22T07:24:49;23.60;99.90
57088;DHT22;42965;52.846;6.614;2023-06-22T07:27:17;23.50;99.90
57088;DHT22;42965;52.846;6.614;2023-06-22T07:29:47;23.70;99.90
57088;DHT22;42965;52.846;6.614;2023-06-22T07:32:13;23.70;99.90
57088;DHT22;42965;52.846;6.614;2023-06-22T07:34:40;24.00;99.90
57088;DHT22;42965;52.846;6.614;2023-06-22T07:37:07;24.40;99.90
57088;DHT22;42965;52.846;6.614;2023-06-22T07:39:33;24.80;99.90
57088;DHT22;42965;52.846;6.614;2023-06-22T07:42:04;24.80;99.90
57088;DHT22;42965;52.846;6.614;2023-06-22T07:44:30;25.00;99.90
57088;DHT22;42965;52.846;6.614;2023-06-22T07:46:56;25.30;99.90
57088;DHT22;42965;52.846;6.614;2023-06-22T07:49:22;25.60;99.90
57088;DHT22;42965;52.846;6.614;2023-06-22T07:51:49;25.70;99.90
57088;DHT22;42965;52.846;6.614;2023-06-22T07:54:16;25.70;99.90
57088;DHT22;42965;52.846;6.614;2023-06-22T07:56:43;25.90;99.90
57088;DHT22;42965;52.846;6.614;2023-06-22T07:59:09;26.00;99.90
57088;DHT22;42965;52.846;6.614;2023-06-22T08:01:35;26.10;99.90
57088;DHT22;42965;52.846;6.614;2023-06-22T08:04:02;26.50;99.90
57088;DHT22;42965;52.846;6.614;2023-06-22T08:06:30;26.60;99.90
57088;DHT22;42965;52.846;6.614;2023-06-22T08:08:57;26.90;99.90
57088;DHT22;42965;52.846;6.614;2023-06-22T08:11:25;27.10;99.90
57088;DHT22;42965;52.846;6.614;2023-06-22T08:13:52;27.30;99.90
57088;DHT22;42965;52.846;6.614;2023-06-22T08:16:18;27.20;99.90
57088;DHT22;42965;52.846;6.614;2023-06-22T08:18:47;27.20;99.90
57088;DHT22;42965;52.846;6.614;2023-06-22T08:21:16;27.10;99.90
57088;DHT22;42965;52.846;6.614;2023-06-22T08:23:43;27.50;99.90
57088;DHT22;42965;52.846;6.614;2023-06-22T08:26:09;27.40;99.90
57088;DHT22;42965;52.846;6.614;2023-06-22T08:28:38;27.50;99.90
57088;DHT22;42965;52.846;6.614;2023-06-22T08:31:05;27.60;99.90
57088;DHT22;42965;52.846;6.614;2023-06-22T08:33:31;27.70;99.90
57088;DHT22;42965;52.846;6.614;2023-06-22T08:35:58;27.70;99.90
57088;DHT22;42965;52.846;6.614;2023-06-22T08:38:25;27.70;99.90
57088;DHT22;42965;52.846;6.614;2023-06-22T08:40:57;27.80;99.10
57088;DHT22;42965;52.846;6.614;2023-06-22T08:43:23;27.60;97.70
57088;DHT22;42965;52.846;6.614;2023-06-22T08:45:50;27.50;98.70
57088;DHT22;42965;52.846;6.614;2023-06-22T08:48:16;27.40;98.50
57088;DHT22;42965;52.846;6.614;2023-06-22T08:50:42;27.70;98.00
57088;DHT22;42965;52.846;6.614;2023-06-22T08:53:09;27.70;97.90
57088;DHT22;42965;52.846;6.614;2023-06-22T08:55:35;27.90;96.80
57088;DHT22;42965;52.846;6.614;2023-06-22T08:58:01;28.00;97.00
57088;DHT22;42965;52.846;6.614;2023-06-22T09:00:27;28.20;95.60
57088;DHT22;42965;52.846;6.614;2023-06-22T09:02:55;28.10;95.00
57088;DHT22;42965;52.846;6.614;2023-06-22T09:05:25;28.40;93.70
57088;DHT22;42965;52.846;6.614;2023-06-22T09:07:52;28.40;93.80
57088;DHT22;42965;52.846;6.614;2023-06-22T09:10:20;28.30;92.60
57088;DHT22;42965;52.846;6.614;2023-06-22T09:12:46;28.40;91.70
57088;DHT22;42965;52.846;6.614;2023-06-22T09:15:13;28.60;92.10
57088;DHT22;42965;52.846;6.614;2023-06-22T09:17:40;28.80;91.70
57088;DHT22;42965;52.846;6.614;2023-06-22T09:20:07;28.90;91.00
57088;DHT22;42965;52.846;6.614;2023-06-22T09:22:36;28.90;88.60
57088;DHT22;42965;52.846;6.614;2023-06-22T09:25:03;29.10;89.10
57088;DHT22;42965;52.846;6.614;2023-06-22T09:27:29;29.30;88.60
57088;DHT22;42965;52.846;6.614;2023-06-22T09:29:56;29.20;84.80
57088;DHT22;42965;52.846;6.614;2023-06-22T09:32:25;29.40;84.70
57088;DHT22;42965;52.846;6.614;2023-06-22T09:34:52;29.60;84.40
57088;DHT22;42965;52.846;6.614;2023-06-22T09:37:19;29.80;83.00
57088;DHT22;42965;52.846;6.614;2023-06-22T09:39:46;29.60;82.20
57088;DHT22;42965;52.846;6.614;2023-06-22T09:42:12;29.70;80.50
57088;DHT22;42965;52.846;6.614;2023-06-22T09:44:39;29.80;80.20
57088;DHT22;42965;52.846;6.614;2023-06-22T09:47:06;30.40;78.70
57088;DHT22;42965;52.846;6.614;2023-06-22T09:49:32;30.70;77.10
57088;DHT22;42965;52.846;6.614;2023-06-22T09:51:59;30.80;74.40
57088;DHT22;42965;52.846;6.614;2023-06-22T09:54:25;31.10;71.90
57088;DHT22;42965;52.846;6.614;2023-06-22T09:56:52;31.20;70.10
57088;DHT22;42965;52.846;6.614;2023-06-22T09:59:18;30.50;68.70
57088;DHT22;42965;52.846;6.614;2023-06-22T10:01:44;30.90;68.00
57088;DHT22;42965;52.846;6.614;2023-06-22T10:04:14;31.00;67.30
57088;DHT22;42965;52.846;6.614;2023-06-22T10:06:40;31.30;67.30
57088;DHT22;42965;52.846;6.614;2023-06-22T10:09:07;31.60;67.20
57088;DHT22;42965;52.846;6.614;2023-06-22T10:11:34;31.40;66.20
57088;DHT22;42965;52.846;6.614;2023-06-22T10:14:01;31.90;65.40
57088;DHT22;42965;52.846;6.614;2023-06-22T10:16:32;31.40;64.00
57088;DHT22;42965;52.846;6.614;2023-06-22T10:18:58;31.80;63.80
57088;DHT22;42965;52.846;6.614;2023-06-22T10:21:24;31.50;62.20
57088;DHT22;42965;52.846;6.614;2023-06-22T10:23:53;31.30;62.40
57088;DHT22;42965;52.846;6.614;2023-06-22T10:26:19;30.80;62.70
57088;DHT22;42965;52.846;6.614;2023-06-22T10:28:46;30.70;63.90
57088;DHT22;42965;52.846;6.614;2023-06-22T10:31:13;30.90;64.40
57088;DHT22;42965;52.846;6.614;2023-06-22T10:33:39;30.60;63.30
57088;DHT22;42965;52.846;6.614;2023-06-22T10:36:07;31.30;64.10
57088;DHT22;42965;52.846;6.614;2023-06-22T10:38:33;31.70;63.60
57088;DHT22;42965;52.846;6.614;2023-06-22T10:41:00;32.20;62.00
57088;DHT22;42965;52.846;6.614;2023-06-22T10:43:26;32.40;60.50
57088;DHT22;42965;52.846;6.614;2023-06-22T10:45:52;32.40;59.10
57088;DHT22;42965;52.846;6.614;2023-06-22T10:48:21;32.40;60.30
57088;DHT22;42965;52.846;6.614;2023-06-22T10:50:47;32.10;59.80
57088;DHT22;42965;52.846;6.614;2023-06-22T10:53:13;31.50;59.10
57088;DHT22;42965;52.846;6.614;2023-06-22T10:55:40;31.20;59.60
57088;DHT22;42965;52.846;6.614;2023-06-22T10:58:06;31.40;59.50
57088;DHT22;42965;52.846;6.614;2023-06-22T11:00:32;31.50;59.20
57088;DHT22;42965;52.846;6.614;2023-06-22T11:03:00;31.40;59.40
57088;DHT22;42965;52.846;6.614;2023-06-22T11:05:26;31.20;59.90
57088;DHT22;42965;52.846;6.614;2023-06-22T11:07:53;31.20;60.30
57088;DHT22;42965;52.846;6.614;2023-06-22T11:10:19;31.20;59.60
57088;DHT22;42965;52.846;6.614;2023-06-22T11:12:46;30.80;60.30
57088;DHT22;42965;52.846;6.614;2023-06-22T11:15:13;30.50;59.70
57088;DHT22;42965;52.846;6.614;2023-06-22T11:17:39;30.30;60.00
57088;DHT22;42965;52.846;6.614;2023-06-22T11:20:06;30.20;60.00
57088;DHT22;42965;52.846;6.614;2023-06-22T11:22:38;30.00;60.90
57088;DHT22;42965;52.846;6.614;2023-06-22T11:25:05;29.90;61.70
57088;DHT22;42965;52.846;6.614;2023-06-22T11:27:32;29.60;61.90
57088;DHT22;42965;52.846;6.614;2023-06-22T11:29:58;29.80;62.30
57088;DHT22;42965;52.846;6.614;2023-06-22T11:32:25;29.60;62.40
57088;DHT22;42965;52.846;6.614;2023-06-22T11:34:51;29.80;62.70
57088;DHT22;42965;52.846;6.614;2023-06-22T11:37:17;29.40;63.30
57088;DHT22;42965;52.846;6.614;2023-06-22T11:39:44;29.30;63.60
57088;DHT22;42965;52.846;6.614;2023-06-22T11:42:10;29.20;63.10
57088;DHT22;42965;52.846;6.614;2023-06-22T11:44:36;29.20;62.80
57088;DHT22;42965;52.846;6.614;2023-06-22T11:47:02;29.20;63.20
57088;DHT22;42965;52.846;6.614;2023-06-22T11:49:31;29.10;64.30
57088;DHT22;42965;52.846;6.614;2023-06-22T11:51:57;28.90;63.70
57088;DHT22;42965;52.846;6.614;2023-06-22T11:54:23;28.70;65.10
57088;DHT22;42965;52.846;6.614;2023-06-22T11:56:49;28.70;66.00
57088;DHT22;42965;52.846;6.614;2023-06-22T11:59:16;28.60;65.80
57088;DHT22;42965;52.846;6.614;2023-06-22T12:01:42;28.50;65.90
57088;DHT22;42965;52.846;6.614;2023-06-22T12:04:08;28.50;66.00
57088;DHT22;42965;52.846;6.614;2023-06-22T12:06:38;28.60;66.40
57088;DHT22;42965;52.846;6.614;2023-06-22T12:09:08;28.50;67.30
57088;DHT22;42965;52.846;6.614;2023-06-22T12:11:34;28.60;67.90
57088;DHT22;42965;52.846;6.614;2023-06-22T12:14:00;28.90;67.10
57088;DHT22;42965;52.846;6.614;2023-06-22T12:16:30;29.00;66.90
57088;DHT22;42965;52.846;6.614;2023-06-22T12:18:57;29.10;66.50
57088;DHT22;42965;52.846;6.614;2023-06-22T12:21:23;29.10;66.30
57088;DHT22;42965;52.846;6.614;2023-06-22T12:23:49;29.20;66.30
57088;DHT22;42965;52.846;6.614;2023-06-22T12:26:16;29.20;65.30
57088;DHT22;42965;52.846;6.614;2023-06-22T12:28:42;29.30;65.70
57088;DHT22;42965;52.846;6.614;2023-06-22T12:31:08;29.30;66.40
57088;DHT22;42965;52.846;6.614;2023-06-22T12:33:35;29.30;66.30
57088;DHT22;42965;52.846;6.614;2023-06-22T12:36:01;28.90;65.60
57088;DHT22;42965;52.846;6.614;2023-06-22T12:38:27;29.00;66.00
57088;DHT22;42965;52.846;6.614;2023-06-22T12:40:54;29.00;66.40
57088;DHT22;42965;52.846;6.614;2023-06-22T12:43:20;28.80;66.70
57088;DHT22;42965;52.846;6.614;2023-06-22T12:45:47;28.70;66.80
57088;DHT22;42965;52.846;6.614;2023-06-22T12:48:13;28.50;66.40
57088;DHT22;42965;52.846;6.614;2023-06-22T12:50:39;28.40;66.70
57088;DHT22;42965;52.846;6.614;2023-06-22T12:53:06;28.20;67.80
57088;DHT22;42965;52.846;6.614;2023-06-22T12:55:32;28.00;67.60
57088;DHT22;42965;52.846;6.614;2023-06-22T12:57:58;27.90;68.00
57088;DHT22;42965;52.846;6.614;2023-06-22T13:00:25;27.80;68.80
57088;DHT22;42965;52.846;6.614;2023-06-22T13:02:51;27.70;69.30
57088;DHT22;42965;52.846;6.614;2023-06-22T13:05:18;27.60;70.20
57088;DHT22;42965;52.846;6.614;2023-06-22T13:07:44;27.60;70.30
57088;DHT22;42965;52.846;6.614;2023-06-22T13:10:11;27.50;71.10
57088;DHT22;42965;52.846;6.614;2023-06-22T13:12:38;27.30;70.10
57088;DHT22;42965;52.846;6.614;2023-06-22T13:15:04;27.30;70.40
57088;DHT22;42965;52.846;6.614;2023-06-22T13:17:32;27.30;70.50
57088;DHT22;42965;52.846;6.614;2023-06-22T13:19:58;27.20;71.00
57088;DHT22;42965;52.846;6.614;2023-06-22T13:22:35;27.10;71.80
57088;DHT22;42965;52.846;6.614;2023-06-22T13:25:10;26.90;71.10
57088;DHT22;42965;52.846;6.614;2023-06-22T13:27:41;26.80;70.90
57088;DHT22;42965;52.846;6.614;2023-06-22T13:30:09;26.70;70.70
57088;DHT22;42965;52.846;6.614;2023-06-22T13:32:35;26.70;71.40
57088;DHT22;42965;52.846;6.614;2023-06-22T13:35:02;26.70;71.90
57088;DHT22;42965;52.846;6.614;2023-06-22T13:37:29;26.80;72.20
57088;DHT22;42965;52.846;6.614;2023-06-22T13:39:55;26.60;73.80
57088;DHT22;42965;52.846;6.614;2023-06-22T13:42:22;26.60;76.10
57088;DHT22;42965;52.846;6.614;2023-06-22T13:44:48;26.60;78.20
57088;DHT22;42965;52.846;6.614;2023-06-22T13:47:14;26.70;80.80
57088;DHT22;42965;52.846;6.614;2023-06-22T13:49:42;26.60;82.30
57088;DHT22;42965;52.846;6.614;2023-06-22T13:52:08;26.50;85.00
57088;DHT22;42965;52.846;6.614;2023-06-22T13:54:36;26.40;90.70
57088;DHT22;42965;52.846;6.614;2023-06-22T13:57:03;26.40;93.40
57088;DHT22;42965;52.846;6.614;2023-06-22T13:59:29;26.20;97.10
57088;DHT22;42965;52.846;6.614;2023-06-22T14:01:56;26.20;98.80
57088;DHT22;42965;52.846;6.614;2023-06-22T14:04:25;26.00;99.90
57088;DHT22;42965;52.846;6.614;2023-06-22T14:06:52;25.90;99.90
57088;DHT22;42965;52.846;6.614;2023-06-22T14:09:19;25.90;99.90
57088;DHT22;42965;52.846;6.614;2023-06-22T14:11:48;26.00;99.90
57088;DHT22;42965;52.846;6.614;2023-06-22T14:14:14;26.00;99.90
57088;DHT22;42965;52.846;6.614;2023-06-22T14:16:41;25.90;99.90
57088;DHT22;42965;52.846;6.614;2023-06-22T14:19:07;25.90;99.90
57088;DHT22;42965;52.846;6.614;2023-06-22T14:21:34;25.90;99.90
57088;DHT22;42965;52.846;6.614;2023-06-22T14:24:00;25.80;99.90
57088;DHT22;42965;52.846;6.614;2023-06-22T14:26:26;25.90;99.90
57088;DHT22;42965;52.846;6.614;2023-06-22T14:28:53;25.70;99.90
57088;DHT22;42965;52.846;6.614;2023-06-22T14:31:19;25.60;99.90
57088;DHT22;42965;52.846;6.614;2023-06-22T14:33:49;25.50;99.90
57088;DHT22;42965;52.846;6.614;2023-06-22T14:36:17;25.40;99.90
57088;DHT22;42965;52.846;6.614;2023-06-22T14:38:43;25.30;99.90
57088;DHT22;42965;52.846;6.614;2023-06-22T14:41:10;25.20;99.90
57088;DHT22;42965;52.846;6.614;2023-06-22T14:43:36;25.10;99.90
57088;DHT22;42965;52.846;6.614;2023-06-22T14:46:03;25.10;99.90
57088;DHT22;42965;52.846;6.614;2023-06-22T14:48:29;25.00;99.90
57088;DHT22;42965;52.846;6.614;2023-06-22T14:50:57;25.00;99.90
57088;DHT22;42965;52.846;6.614;2023-06-22T14:53:23;24.80;99.90
57088;DHT22;42965;52.846;6.614;2023-06-22T14:55:49;24.70;99.90
57088;DHT22;42965;52.846;6.614;2023-06-22T14:58:16;24.60;99.90
57088;DHT22;42965;52.846;6.614;2023-06-22T15:00:42;24.50;99.90
57088;DHT22;42965;52.846;6.614;2023-06-22T15:03:09;24.50;99.90
57088;DHT22;42965;52.846;6.614;2023-06-22T15:05:43;24.40;99.90
57088;DHT22;42965;52.846;6.614;2023-06-22T15:08:09;24.30;99.90
57088;DHT22;42965;52.846;6.614;2023-06-22T15:10:37;24.10;99.90
57088;DHT22;42965;52.846;6.614;2023-06-22T15:13:03;24.10;99.90
57088;DHT22;42965;52.846;6.614;2023-06-22T15:15:30;24.00;99.90
57088;DHT22;42965;52.846;6.614;2023-06-22T15:17:56;23.90;99.90
57088;DHT22;42965;52.846;6.614;2023-06-22T15:20:22;23.90;99.90
57088;DHT22;42965;52.846;6.614;2023-06-22T15:22:48;23.80;99.90
57088;DHT22;42965;52.846;6.614;2023-06-22T15:25:14;23.70;99.90
57088;DHT22;42965;52.846;6.614;2023-06-22T15:27:43;23.60;99.90
57088;DHT22;42965;52.846;6.614;2023-06-22T15:30:10;23.50;99.90
57088;DHT22;42965;52.846;6.614;2023-06-22T15:32:36;23.40;99.90
57088;DHT22;42965;52.846;6.614;2023-06-22T15:35:03;23.30;99.90
57088;DHT22;42965;52.846;6.614;2023-06-22T15:37:30;23.10;99.90
57088;DHT22;42965;52.846;6.614;2023-06-22T15:39:56;23.10;99.90
57088;DHT22;42965;52.846;6.614;2023-06-22T15:42:24;23.00;99.90